createdAt,value
2022-12-02T00:00:51.157Z,2.40
2022-12-02T00:01:55.014Z,2.40
2022-12-02T00:02:58.430Z,2.40
2022-12-02T00:04:02.388Z,2.50
2022-12-02T00:05:19.030Z,2.40
2022-12-02T00:06:29.324Z,2.50
2022-12-02T00:07:32.932Z,2.50
2022-12-02T00:08:37.173Z,2.50
2022-12-02T00:09:43.251Z,2.50
2022-12-02T00:10:45.838Z,2.50
2022-12-02T00:11:48.937Z,2.50
2022-12-02T00:12:52.120Z,2.50
2022-12-02T00:13:57.099Z,2.50
2022-12-02T00:15:42.435Z,2.50
2022-12-02T00:16:44.744Z,2.50
2022-12-02T00:17:47.083Z,2.50
2022-12-02T00:18:50.202Z,2.50
2022-12-02T00:19:53.500Z,2.50
2022-12-02T00:20:56.836Z,2.50
2022-12-02T00:21:59.115Z,2.50
2022-12-02T00:23:01.354Z,2.50
2022-12-02T00:24:03.748Z,2.50
2022-12-02T00:25:06.415Z,2.50
2022-12-02T00:26:09.006Z,2.50
2022-12-02T00:27:11.396Z,2.50
2022-12-02T00:28:14.547Z,2.50
2022-12-02T00:29:16.931Z,2.50
2022-12-02T00:30:19.295Z,2.40
2022-12-02T00:31:21.523Z,2.50
2022-12-02T00:32:24.432Z,2.40
2022-12-02T00:33:26.720Z,2.40
2022-12-02T00:34:29.010Z,2.40
2022-12-02T00:35:31.287Z,2.50
2022-12-02T00:36:33.775Z,2.50
2022-12-02T00:37:35.959Z,2.40
2022-12-02T00:38:38.244Z,2.40
2022-12-02T00:39:40.466Z,2.40
2022-12-02T00:40:42.810Z,2.40
2022-12-02T00:41:45.088Z,2.40
2022-12-02T00:42:47.465Z,2.40
2022-12-02T00:44:08.361Z,2.40
2022-12-02T00:45:31.315Z,2.40
2022-12-02T00:46:35.260Z,2.40
2022-12-02T00:47:37.632Z,2.40
2022-12-02T00:48:39.914Z,2.40
2022-12-02T00:49:42.133Z,2.40
2022-12-02T00:50:44.361Z,2.40
2022-12-02T00:51:46.803Z,2.30
2022-12-02T00:52:49.071Z,2.30
2022-12-02T00:53:51.525Z,2.30
2022-12-02T00:54:53.780Z,2.30
2022-12-02T00:55:56.144Z,2.30
2022-12-02T00:56:58.390Z,2.40
2022-12-02T00:58:00.611Z,2.40
2022-12-02T00:59:03.200Z,2.40
2022-12-02T01:00:07.688Z,2.40
2022-12-02T01:01:10.357Z,2.40
2022-12-02T01:02:12.824Z,2.40
2022-12-02T01:03:15.629Z,2.40
2022-12-02T01:04:17.839Z,2.40
2022-12-02T01:05:21.860Z,2.40
2022-12-02T01:06:24.333Z,2.40
2022-12-02T01:07:26.616Z,2.40
2022-12-02T01:08:29.055Z,2.40
2022-12-02T01:09:31.639Z,2.40
2022-12-02T01:10:34.107Z,2.40
2022-12-02T01:11:36.408Z,2.40
2022-12-02T01:12:38.658Z,2.40
2022-12-02T01:13:40.891Z,2.40
2022-12-02T01:14:43.114Z,2.40
2022-12-02T01:15:45.669Z,2.40
2022-12-02T01:16:47.989Z,2.40
2022-12-02T01:17:50.281Z,2.40
2022-12-02T01:18:52.638Z,2.40
2022-12-02T01:19:54.870Z,2.40
2022-12-02T01:20:57.068Z,2.40
2022-12-02T01:21:59.340Z,2.40
2022-12-02T01:23:01.592Z,2.40
2022-12-02T01:24:03.889Z,2.40
2022-12-02T01:25:06.715Z,2.40
2022-12-02T01:26:08.927Z,2.40
2022-12-02T01:27:11.136Z,2.40
2022-12-02T01:28:13.348Z,2.40
2022-12-02T01:29:15.563Z,2.40
2022-12-02T01:30:17.892Z,2.40
2022-12-02T01:31:20.249Z,2.40
2022-12-02T01:32:23.631Z,2.40
2022-12-02T01:33:28.788Z,2.40
2022-12-02T01:34:31.012Z,2.40
2022-12-02T01:35:33.316Z,2.40
2022-12-02T01:36:35.575Z,2.40
2022-12-02T01:37:37.876Z,2.40
2022-12-02T01:38:40.119Z,2.40
2022-12-02T01:39:42.367Z,2.50
2022-12-02T01:40:44.921Z,2.40
2022-12-02T01:41:47.173Z,2.50
2022-12-02T01:42:49.949Z,2.50
2022-12-02T01:43:52.460Z,2.50
2022-12-02T01:44:54.834Z,2.50
2022-12-02T01:45:57.427Z,2.50
2022-12-02T01:47:01.073Z,2.50
2022-12-02T01:48:04.424Z,2.50
2022-12-02T01:49:07.074Z,2.50
2022-12-02T01:50:11.460Z,2.40
2022-12-02T01:51:13.730Z,2.40
2022-12-02T01:52:16.008Z,2.40
2022-12-02T01:53:18.331Z,2.40
2022-12-02T01:54:21.004Z,2.40
2022-12-02T01:55:25.536Z,2.40
2022-12-02T01:56:28.552Z,2.40
2022-12-02T01:57:31.468Z,2.40
2022-12-02T01:58:33.676Z,2.40
2022-12-02T01:59:35.992Z,2.40
2022-12-02T02:00:38.516Z,2.40
2022-12-02T02:01:41.152Z,2.40
2022-12-02T02:02:44.762Z,2.40
2022-12-02T02:03:46.984Z,2.40
2022-12-02T02:04:49.549Z,2.40
2022-12-02T02:05:52.702Z,2.40
2022-12-02T02:06:54.983Z,2.40
2022-12-02T02:08:02.482Z,2.40
2022-12-02T02:09:05.083Z,2.40
2022-12-02T02:10:08.980Z,2.40
2022-12-02T02:11:11.412Z,2.40
2022-12-02T02:12:13.704Z,2.40
2022-12-02T02:13:17.447Z,2.40
2022-12-02T02:14:19.710Z,2.40
2022-12-02T02:15:23.360Z,2.40
2022-12-02T02:16:26.030Z,2.40
2022-12-02T02:17:28.843Z,2.30
2022-12-02T02:18:31.136Z,2.30
2022-12-02T02:19:33.461Z,2.30
2022-12-02T02:20:40.087Z,2.30
2022-12-02T02:21:50.016Z,2.30
2022-12-02T02:23:06.145Z,2.30
2022-12-02T02:24:11.181Z,2.30
2022-12-02T02:25:20.324Z,2.30
2022-12-02T02:26:24.352Z,2.30
2022-12-02T02:27:26.661Z,2.30
2022-12-02T02:28:29.406Z,2.30
2022-12-02T02:29:32.042Z,2.30
2022-12-02T02:30:36.389Z,2.30
2022-12-02T02:31:38.988Z,2.30
2022-12-02T02:32:44.559Z,2.30
2022-12-02T02:33:48.081Z,2.30
2022-12-02T02:34:50.675Z,2.30
2022-12-02T02:35:53.718Z,2.30
2022-12-02T02:36:56.507Z,2.30
2022-12-02T02:37:58.857Z,2.30
2022-12-02T02:39:01.541Z,2.30
2022-12-02T02:40:04.881Z,2.30
2022-12-02T02:41:09.493Z,2.30
2022-12-02T02:42:11.824Z,2.30
2022-12-02T02:43:14.956Z,2.30
2022-12-02T02:44:24.086Z,2.30
2022-12-02T02:45:34.654Z,2.30
2022-12-02T02:46:38.356Z,2.30
2022-12-02T02:47:40.842Z,2.30
2022-12-02T02:48:44.065Z,2.30
2022-12-02T02:49:46.480Z,2.30
2022-12-02T02:50:49.539Z,2.30
2022-12-02T02:51:53.633Z,2.30
2022-12-02T02:52:56.105Z,2.30
2022-12-02T02:53:58.541Z,2.30
2022-12-02T02:55:00.877Z,2.30
2022-12-02T02:56:04.169Z,2.30
2022-12-02T02:57:09.720Z,2.30
2022-12-02T02:58:14.838Z,2.30
2022-12-02T02:59:19.744Z,2.30
2022-12-02T03:00:23.417Z,2.30
2022-12-02T03:01:30.338Z,2.30
2022-12-02T03:02:33.343Z,2.30
2022-12-02T03:03:43.808Z,2.30
2022-12-02T03:04:47.101Z,2.30
2022-12-02T03:05:51.444Z,2.30
2022-12-02T03:06:54.492Z,2.30
2022-12-02T03:07:56.894Z,2.30
2022-12-02T03:09:00.803Z,2.30
2022-12-02T03:10:05.642Z,2.30
2022-12-02T03:11:08.351Z,2.30
2022-12-02T03:12:11.031Z,2.30
2022-12-02T03:13:13.375Z,2.30
2022-12-02T03:14:17.072Z,2.30
2022-12-02T03:15:21.605Z,2.30
2022-12-02T03:16:25.567Z,2.30
2022-12-02T03:17:27.988Z,2.30
2022-12-02T03:18:31.137Z,2.30
2022-12-02T03:19:35.182Z,2.30
2022-12-02T03:20:37.483Z,2.30
2022-12-02T03:21:40.106Z,2.30
2022-12-02T03:22:42.521Z,2.30
2022-12-02T03:23:46.536Z,2.30
2022-12-02T03:24:49.128Z,2.30
2022-12-02T03:25:51.864Z,2.30
2022-12-02T03:26:54.225Z,2.30
2022-12-02T03:27:56.894Z,2.30
2022-12-02T03:29:00.384Z,2.30
2022-12-02T03:30:04.067Z,2.30
2022-12-02T03:31:06.943Z,2.30
2022-12-02T03:32:10.926Z,2.30
2022-12-02T03:33:13.496Z,2.30
2022-12-02T03:34:16.190Z,2.30
2022-12-02T03:35:18.637Z,2.30
2022-12-02T03:36:21.639Z,2.30
2022-12-02T03:37:24.501Z,2.30
2022-12-02T03:38:27.856Z,2.30
2022-12-02T03:39:30.151Z,2.30
2022-12-02T03:40:32.721Z,2.30
2022-12-02T03:41:35.036Z,2.30
2022-12-02T03:42:37.694Z,2.30
2022-12-02T03:43:40.172Z,2.30
2022-12-02T03:44:42.734Z,2.30
2022-12-02T03:45:45.203Z,2.30
2022-12-02T03:46:50.135Z,2.30
2022-12-02T03:47:52.867Z,2.30
2022-12-02T03:48:56.384Z,2.30
2022-12-02T03:49:59.426Z,2.30
2022-12-02T03:51:01.775Z,2.30
2022-12-02T03:52:04.613Z,2.30
2022-12-02T03:53:06.928Z,2.30
2022-12-02T03:54:09.281Z,2.30
2022-12-02T03:55:11.935Z,2.30
2022-12-02T03:56:15.396Z,2.30
2022-12-02T03:57:17.659Z,2.30
2022-12-02T03:58:19.900Z,2.30
2022-12-02T03:59:25.844Z,2.30
2022-12-02T04:00:28.093Z,2.30
2022-12-02T04:01:30.444Z,2.30
2022-12-02T04:02:32.849Z,2.30
2022-12-02T04:03:35.111Z,2.30
2022-12-02T04:04:37.384Z,2.30
2022-12-02T04:05:41.086Z,2.30
2022-12-02T04:06:45.188Z,2.30
2022-12-02T04:07:47.768Z,2.30
2022-12-02T04:08:50.212Z,2.30
2022-12-02T04:09:52.524Z,2.30
2022-12-02T04:10:54.851Z,2.30
2022-12-02T04:11:57.203Z,2.30
2022-12-02T04:12:59.502Z,2.30
2022-12-02T04:14:01.765Z,2.30
2022-12-02T04:15:04.612Z,2.30
2022-12-02T04:16:07.140Z,2.30
2022-12-02T04:17:09.630Z,2.30
2022-12-02T04:18:13.639Z,2.30
2022-12-02T04:19:15.928Z,2.20
2022-12-02T04:20:18.362Z,2.30
2022-12-02T04:21:21.816Z,2.30
2022-12-02T04:22:24.129Z,2.30
2022-12-02T04:23:26.457Z,2.30
2022-12-02T04:24:29.033Z,2.30
2022-12-02T04:25:31.257Z,2.30
2022-12-02T04:26:33.507Z,2.30
2022-12-02T04:27:35.843Z,2.30
2022-12-02T04:28:38.086Z,2.30
2022-12-02T04:29:40.358Z,2.30
2022-12-02T04:30:42.675Z,2.30
2022-12-02T04:31:44.945Z,2.30
2022-12-02T04:32:47.540Z,2.30
2022-12-02T04:33:49.939Z,2.30
2022-12-02T04:34:52.417Z,2.30
2022-12-02T04:35:54.983Z,2.30
2022-12-02T04:36:57.207Z,2.30
2022-12-02T04:37:59.656Z,2.30
2022-12-02T04:39:01.924Z,2.30
2022-12-02T04:40:05.317Z,2.30
2022-12-02T04:41:07.557Z,2.20
2022-12-02T04:42:09.819Z,2.20
2022-12-02T04:43:12.192Z,2.20
2022-12-02T04:44:18.058Z,2.20
2022-12-02T04:45:20.656Z,2.20
2022-12-02T04:46:23.015Z,2.20
2022-12-02T04:47:25.484Z,2.20
2022-12-02T04:48:27.840Z,2.20
2022-12-02T04:49:30.108Z,2.20
2022-12-02T04:50:32.428Z,2.20
2022-12-02T04:51:34.716Z,2.20
2022-12-02T04:52:36.938Z,2.20
2022-12-02T04:53:39.231Z,2.20
2022-12-02T04:54:41.747Z,2.20
2022-12-02T04:55:46.666Z,2.20
2022-12-02T04:56:48.937Z,2.20
2022-12-02T04:57:51.208Z,2.20
2022-12-02T04:58:53.426Z,2.20
2022-12-02T04:59:55.648Z,2.20
2022-12-02T05:00:57.873Z,2.20
2022-12-02T05:02:00.507Z,2.20
2022-12-02T05:03:02.987Z,2.20
2022-12-02T05:04:05.325Z,2.20
2022-12-02T05:05:08.243Z,2.20
2022-12-02T05:06:10.716Z,2.20
2022-12-02T05:07:12.958Z,2.20
2022-12-02T05:08:15.228Z,2.10
2022-12-02T05:09:17.590Z,2.10
2022-12-02T05:10:19.889Z,2.10
2022-12-02T05:11:22.152Z,2.10
2022-12-02T05:12:25.139Z,2.20
2022-12-02T05:13:27.397Z,2.20
2022-12-02T05:14:29.863Z,2.20
2022-12-02T05:15:32.190Z,2.20
2022-12-02T05:16:34.669Z,2.20
2022-12-02T05:17:41.706Z,2.20
2022-12-02T05:18:44.550Z,2.20
2022-12-02T05:19:46.804Z,2.20
2022-12-02T05:20:49.098Z,2.20
2022-12-02T05:21:51.414Z,2.20
2022-12-02T05:22:53.706Z,2.20
2022-12-02T05:23:56.004Z,2.20
2022-12-02T05:24:58.277Z,2.20
2022-12-02T05:26:00.617Z,2.20
2022-12-02T05:27:02.859Z,2.20
2022-12-02T05:28:05.207Z,2.20
2022-12-02T05:29:08.189Z,2.20
2022-12-02T05:30:11.917Z,2.20
2022-12-02T05:31:14.307Z,2.20
2022-12-02T05:32:16.554Z,2.20
2022-12-02T05:33:18.781Z,2.20
2022-12-02T05:34:21.045Z,2.20
2022-12-02T05:35:23.357Z,2.20
2022-12-02T05:36:25.844Z,2.20
2022-12-02T05:37:28.228Z,2.20
2022-12-02T05:38:30.456Z,2.20
2022-12-02T05:39:32.770Z,2.20
2022-12-02T05:40:34.996Z,2.20
2022-12-02T05:41:38.659Z,2.20
2022-12-02T05:42:41.603Z,2.20
2022-12-02T05:43:43.988Z,2.20
2022-12-02T05:44:46.343Z,2.20
2022-12-02T05:45:48.814Z,2.20
2022-12-02T05:46:51.516Z,2.20
2022-12-02T05:47:54.499Z,2.10
2022-12-02T05:48:58.017Z,2.20
2022-12-02T05:50:01.277Z,2.10
2022-12-02T05:51:10.012Z,2.10
2022-12-02T05:52:30.542Z,2.10
2022-12-02T05:53:34.971Z,2.10
2022-12-02T05:54:38.757Z,2.10
2022-12-02T05:55:41.109Z,2.10
2022-12-02T05:56:43.409Z,2.10
2022-12-02T05:57:46.562Z,2.10
2022-12-02T05:58:48.917Z,2.10
2022-12-02T05:59:55.430Z,2.10
2022-12-02T06:01:00.251Z,2.10
2022-12-02T06:02:02.688Z,2.10
2022-12-02T06:03:13.563Z,2.10
2022-12-02T06:04:25.243Z,2.20
2022-12-02T06:05:37.886Z,2.20
2022-12-02T06:06:41.457Z,2.20
2022-12-02T06:07:48.059Z,2.20
2022-12-02T06:08:50.422Z,2.20
2022-12-02T06:09:55.862Z,2.10
2022-12-02T06:11:02.266Z,2.20
2022-12-02T06:12:14.904Z,2.20
2022-12-02T06:13:21.743Z,2.20
2022-12-02T06:14:28.568Z,2.20
2022-12-02T06:15:38.523Z,2.20
2022-12-02T06:16:44.060Z,2.20
2022-12-02T06:17:46.864Z,2.20
2022-12-02T06:18:49.374Z,2.20
2022-12-02T06:19:54.255Z,2.10
2022-12-02T06:21:12.058Z,2.20
2022-12-02T06:22:26.605Z,2.20
2022-12-02T06:23:31.789Z,2.10
2022-12-02T06:24:35.764Z,2.20
2022-12-02T06:25:38.168Z,2.10
2022-12-02T06:26:40.467Z,2.10
2022-12-02T06:27:42.775Z,2.20
2022-12-02T06:28:47.594Z,2.10
2022-12-02T06:29:56.426Z,2.20
2022-12-02T06:31:05.174Z,2.20
2022-12-02T06:32:15.214Z,2.20
2022-12-02T06:33:36.885Z,2.10
2022-12-02T06:34:41.448Z,2.10
2022-12-02T06:35:43.647Z,2.10
2022-12-02T06:36:46.026Z,2.10
2022-12-02T06:37:49.465Z,2.10
2022-12-02T06:38:58.887Z,2.10
2022-12-02T06:41:30.436Z,2.10
2022-12-02T06:42:38.147Z,2.10
2022-12-02T06:43:40.673Z,2.10
2022-12-02T06:45:01.322Z,2.10
2022-12-02T06:46:07.823Z,2.10
2022-12-02T06:47:37.680Z,2.10
2022-12-02T06:48:40.691Z,2.10
2022-12-02T06:49:43.009Z,2.10
2022-12-02T06:50:47.500Z,2.10
2022-12-02T06:51:57.744Z,2.10
2022-12-02T06:53:18.512Z,2.10
2022-12-02T06:54:22.713Z,2.10
2022-12-02T06:55:34.665Z,2.10
2022-12-02T06:56:41.813Z,2.10
2022-12-02T06:57:44.047Z,2.10
2022-12-02T06:59:08.003Z,2.10
2022-12-02T07:00:11.209Z,2.10
2022-12-02T07:01:31.503Z,2.20
2022-12-02T07:02:33.983Z,2.20
2022-12-02T07:03:44.139Z,2.20
2022-12-02T07:04:51.856Z,2.20
2022-12-02T07:05:56.991Z,2.20
2022-12-02T07:07:22.968Z,2.20
2022-12-02T07:08:26.259Z,2.20
2022-12-02T07:09:57.414Z,2.20
2022-12-02T07:10:59.644Z,2.20
2022-12-02T07:12:02.152Z,2.20
2022-12-02T07:13:13.871Z,2.20
2022-12-02T07:14:33.546Z,2.20
2022-12-02T07:15:35.925Z,2.20
2022-12-02T07:16:38.319Z,2.20
2022-12-02T07:17:43.068Z,2.20
2022-12-02T07:18:45.440Z,2.30
2022-12-02T07:19:54.568Z,2.30
2022-12-02T07:20:57.329Z,2.30
2022-12-02T07:22:00.029Z,2.30
2022-12-02T07:23:12.473Z,2.30
2022-12-02T07:24:18.403Z,2.30
2022-12-02T07:25:39.989Z,2.30
2022-12-02T07:26:44.382Z,2.30
2022-12-02T07:27:49.895Z,2.30
2022-12-02T07:29:14.980Z,2.30
2022-12-02T07:30:31.100Z,2.30
2022-12-02T07:31:34.008Z,2.30
2022-12-02T07:32:36.203Z,2.30
2022-12-02T07:33:38.952Z,2.30
2022-12-02T07:34:41.202Z,2.30
2022-12-02T07:35:43.411Z,2.30
2022-12-02T07:36:46.905Z,2.30
2022-12-02T07:37:49.484Z,2.40
2022-12-02T07:39:07.503Z,2.40
2022-12-02T07:40:14.988Z,2.40
2022-12-02T07:41:25.251Z,2.40
2022-12-02T07:42:27.542Z,2.40
2022-12-02T07:43:30.256Z,2.40
2022-12-02T07:44:32.482Z,2.40
2022-12-02T07:45:34.749Z,2.40
2022-12-02T07:48:05.312Z,2.40
2022-12-02T07:49:07.612Z,2.40
2022-12-02T07:50:11.541Z,2.40
2022-12-02T07:51:13.795Z,2.40
2022-12-02T07:52:16.360Z,2.40
2022-12-02T07:53:18.691Z,2.40
2022-12-02T07:54:20.957Z,2.50
2022-12-02T07:55:26.499Z,2.50
2022-12-02T07:56:29.084Z,2.50
2022-12-02T07:57:34.515Z,2.50
2022-12-02T07:59:10.091Z,2.50
2022-12-02T07:59:59.914Z,2.50
2022-12-02T08:01:02.170Z,2.60
2022-12-02T08:02:04.602Z,2.60
2022-12-02T08:03:06.893Z,2.60
2022-12-02T08:04:09.363Z,2.60
2022-12-02T08:05:12.716Z,2.60
2022-12-02T08:06:15.478Z,2.60
2022-12-02T08:07:17.740Z,2.60
2022-12-02T08:08:19.997Z,2.60
2022-12-02T08:09:22.252Z,2.60
2022-12-02T08:10:25.687Z,2.60
2022-12-02T08:11:28.007Z,2.60
2022-12-02T08:12:30.267Z,2.60
2022-12-02T08:13:32.496Z,2.70
2022-12-02T08:14:34.791Z,2.70
2022-12-02T08:15:37.095Z,2.70
2022-12-02T08:16:39.393Z,2.70
2022-12-02T08:17:43.082Z,2.70
2022-12-02T08:18:45.827Z,2.70
2022-12-02T08:19:48.143Z,2.70
2022-12-02T08:20:50.387Z,2.70
2022-12-02T08:21:53.272Z,2.70
2022-12-02T08:22:55.557Z,2.70
2022-12-02T08:23:57.940Z,2.70
2022-12-02T08:25:00.409Z,2.70
2022-12-02T08:26:02.761Z,2.70
2022-12-02T08:27:05.221Z,2.70
2022-12-02T08:28:07.544Z,2.70
2022-12-02T08:29:09.837Z,2.70
2022-12-02T08:30:15.450Z,2.70
2022-12-02T08:31:18.007Z,2.70
2022-12-02T08:32:20.982Z,2.70
2022-12-02T08:33:23.350Z,2.70
2022-12-02T08:34:25.579Z,2.70
2022-12-02T08:35:27.975Z,2.80
2022-12-02T08:36:30.179Z,2.80
2022-12-02T08:37:32.544Z,2.80
2022-12-02T08:38:34.890Z,2.80
2022-12-02T08:39:37.936Z,2.80
2022-12-02T08:40:40.321Z,2.80
2022-12-02T08:41:42.813Z,2.80
2022-12-02T08:42:45.137Z,2.80
2022-12-02T08:43:47.753Z,2.80
2022-12-02T08:44:50.277Z,2.80
2022-12-02T08:45:52.800Z,2.80
2022-12-02T08:46:55.237Z,2.80
2022-12-02T08:47:57.587Z,2.80
2022-12-02T08:49:00.288Z,2.80
2022-12-02T08:50:02.621Z,2.80
2022-12-02T08:51:05.829Z,2.80
2022-12-02T08:52:08.650Z,2.80
2022-12-02T08:53:11.040Z,2.80
2022-12-02T08:54:15.242Z,2.80
2022-12-02T08:55:17.501Z,2.80
2022-12-02T08:56:19.753Z,2.80
2022-12-02T08:57:22.113Z,2.80
2022-12-02T08:58:24.353Z,2.80
2022-12-02T08:59:27.908Z,2.80
2022-12-02T09:00:35.637Z,2.80
2022-12-02T09:01:41.076Z,2.80
2022-12-02T09:02:43.570Z,2.80
2022-12-02T09:03:45.835Z,2.80
2022-12-02T09:04:48.040Z,2.80
2022-12-02T09:05:50.329Z,2.80
2022-12-02T09:06:52.671Z,2.80
2022-12-02T09:07:55.599Z,2.80
2022-12-02T09:08:58.003Z,2.80
2022-12-02T09:10:01.819Z,2.80
2022-12-02T09:11:04.239Z,2.90
2022-12-02T09:12:06.904Z,2.90
2022-12-02T09:13:09.215Z,2.90
2022-12-02T09:14:11.446Z,2.90
2022-12-02T09:15:13.784Z,2.90
2022-12-02T09:16:16.355Z,2.90
2022-12-02T09:17:18.653Z,2.90
2022-12-02T09:18:20.907Z,2.90
2022-12-02T09:19:23.216Z,3.00
2022-12-02T09:20:25.616Z,3.00
2022-12-02T09:21:28.137Z,3.00
2022-12-02T09:22:30.379Z,3.00
2022-12-02T09:23:32.662Z,3.00
2022-12-02T09:24:35.023Z,3.00
2022-12-02T09:25:37.316Z,3.00
2022-12-02T09:26:39.640Z,3.00
2022-12-02T09:27:42.732Z,3.00
2022-12-02T09:28:44.964Z,3.00
2022-12-02T09:29:47.266Z,2.90
2022-12-02T09:30:49.927Z,2.90
2022-12-02T09:31:52.336Z,2.90
2022-12-02T09:32:54.656Z,3.00
2022-12-02T09:33:57.040Z,2.90
2022-12-02T09:34:59.446Z,2.90
2022-12-02T09:36:01.956Z,2.90
2022-12-02T09:37:04.217Z,2.90
2022-12-02T09:38:06.782Z,2.90
2022-12-02T09:39:09.228Z,2.90
2022-12-02T09:40:11.992Z,2.90
2022-12-02T09:41:14.225Z,2.90
2022-12-02T09:42:17.784Z,2.90
2022-12-02T09:43:20.404Z,2.90
2022-12-02T09:44:22.854Z,2.90
2022-12-02T09:45:25.267Z,2.90
2022-12-02T09:46:27.546Z,2.90
2022-12-02T09:47:30.491Z,2.80
2022-12-02T09:48:33.231Z,2.80
2022-12-02T09:49:36.001Z,2.80
2022-12-02T09:50:40.050Z,2.80
2022-12-02T09:51:42.509Z,2.80
2022-12-02T09:52:45.886Z,2.80
2022-12-02T09:53:48.406Z,2.80
2022-12-02T09:54:52.575Z,2.80
2022-12-02T09:55:56.063Z,2.80
2022-12-02T09:56:59.257Z,2.80
2022-12-02T09:58:15.336Z,2.70
2022-12-02T09:59:17.853Z,2.80
2022-12-02T10:00:22.121Z,2.70
2022-12-02T10:01:27.749Z,2.70
2022-12-02T10:02:43.424Z,2.70
2022-12-02T10:03:47.900Z,2.70
2022-12-02T10:04:50.700Z,2.60
2022-12-02T10:05:53.657Z,2.60
2022-12-02T10:06:55.889Z,2.60
2022-12-02T10:08:00.047Z,2.60
2022-12-02T10:09:02.449Z,2.60
2022-12-02T10:10:06.220Z,2.60
2022-12-02T10:11:08.542Z,2.60
2022-12-02T10:12:11.844Z,2.60
2022-12-02T10:13:16.848Z,2.60
2022-12-02T10:14:19.250Z,2.60
2022-12-02T10:15:27.226Z,2.60
2022-12-02T10:16:29.718Z,2.60
2022-12-02T10:17:32.335Z,2.60
2022-12-02T10:18:34.724Z,2.60
2022-12-02T10:19:36.959Z,2.60
2022-12-02T10:20:39.174Z,2.70
2022-12-02T10:21:41.740Z,2.70
2022-12-02T10:23:20.039Z,2.60
2022-12-02T10:24:43.105Z,2.60
2022-12-02T10:25:52.922Z,2.60
2022-12-02T10:26:55.590Z,2.60
2022-12-02T10:27:58.119Z,2.60
2022-12-02T10:29:04.628Z,2.70
2022-12-02T10:30:19.034Z,2.60
2022-12-02T10:31:22.741Z,2.70
2022-12-02T10:32:28.846Z,2.70
2022-12-02T10:33:36.480Z,2.70
2022-12-02T10:34:39.575Z,2.70
2022-12-02T10:35:49.617Z,2.70
2022-12-02T10:36:53.079Z,2.70
2022-12-02T10:37:55.428Z,2.70
2022-12-02T10:39:36.059Z,2.70
2022-12-02T10:40:40.411Z,2.70
2022-12-02T10:41:42.651Z,2.70
2022-12-02T10:42:45.737Z,2.70
2022-12-02T10:43:53.873Z,2.70
2022-12-02T10:45:18.823Z,2.70
2022-12-02T10:46:22.392Z,2.70
2022-12-02T10:47:26.958Z,2.70
2022-12-02T10:48:29.386Z,2.70
2022-12-02T10:49:37.507Z,2.80
2022-12-02T10:50:40.086Z,2.80
2022-12-02T10:51:42.318Z,2.70
2022-12-02T10:52:50.554Z,2.70
2022-12-02T10:53:57.262Z,2.70
2022-12-02T10:55:00.199Z,2.70
2022-12-02T10:56:02.656Z,2.70
2022-12-02T10:57:06.128Z,2.80
2022-12-02T10:58:14.838Z,2.80
2022-12-02T10:59:17.281Z,2.80
2022-12-02T11:00:22.993Z,2.80
2022-12-02T11:01:25.410Z,2.80
2022-12-02T11:02:46.070Z,2.80
2022-12-02T11:03:48.924Z,2.70
2022-12-02T11:04:51.585Z,2.80
2022-12-02T11:05:54.209Z,2.70
2022-12-02T11:06:56.608Z,2.70
2022-12-02T11:08:21.374Z,2.70
2022-12-02T11:09:41.883Z,2.70
2022-12-02T11:10:46.249Z,2.70
2022-12-02T11:11:49.235Z,2.80
2022-12-02T11:12:51.402Z,2.80
2022-12-02T11:13:57.178Z,2.70
2022-12-02T11:15:00.477Z,2.80
2022-12-02T11:16:26.932Z,2.80
2022-12-02T11:17:50.571Z,2.80
2022-12-02T11:19:03.706Z,2.80
2022-12-02T11:20:39.418Z,2.80
2022-12-02T11:21:44.428Z,2.70
2022-12-02T11:22:50.202Z,2.70
2022-12-02T11:24:24.630Z,2.70
2022-12-02T11:25:47.670Z,2.70
2022-12-02T11:27:04.816Z,2.70
2022-12-02T11:28:15.682Z,2.70
2022-12-02T11:29:18.076Z,2.70
2022-12-02T11:30:20.326Z,2.60
2022-12-02T11:31:24.925Z,2.60
2022-12-02T11:32:27.306Z,2.50
2022-12-02T11:33:54.114Z,2.60
2022-12-02T11:35:17.453Z,2.50
2022-12-02T11:36:25.526Z,2.50
2022-12-02T11:37:27.895Z,2.50
2022-12-02T11:38:30.201Z,2.50
2022-12-02T11:39:53.115Z,2.50
2022-12-02T11:40:55.551Z,2.50
2022-12-02T11:42:00.637Z,2.50
2022-12-02T11:43:51.519Z,2.50
2022-12-02T11:45:10.248Z,2.60
2022-12-02T11:46:22.795Z,2.60
2022-12-02T11:47:34.727Z,2.60
2022-12-02T11:49:26.650Z,2.60
2022-12-02T11:50:41.349Z,2.60
2022-12-02T11:51:44.032Z,2.60
2022-12-02T11:52:59.780Z,2.60
2022-12-02T11:54:02.224Z,2.60
2022-12-02T11:55:12.493Z,2.50
2022-12-02T11:56:18.639Z,2.60
2022-12-02T11:57:26.631Z,2.60
2022-12-02T11:58:35.008Z,2.50
2022-12-02T11:59:41.573Z,2.50
2022-12-02T12:01:12.736Z,2.50
2022-12-02T12:02:19.373Z,2.50
2022-12-02T12:03:21.951Z,2.50
2022-12-02T12:04:29.654Z,2.50
2022-12-02T12:05:32.051Z,2.50
2022-12-02T12:06:35.480Z,2.50
2022-12-02T12:07:42.753Z,2.40
2022-12-02T12:08:54.639Z,2.40
2022-12-02T12:09:58.134Z,2.50
2022-12-02T12:11:18.004Z,2.50
2022-12-02T12:12:20.406Z,2.50
2022-12-02T12:13:24.497Z,2.40
2022-12-02T12:14:26.738Z,2.40
2022-12-02T12:16:00.668Z,2.40
2022-12-02T12:17:34.350Z,2.40
2022-12-02T12:18:48.805Z,2.40
2022-12-02T12:19:51.097Z,2.40
2022-12-02T12:20:53.409Z,2.50
2022-12-02T12:21:57.392Z,2.50
2022-12-02T12:23:30.012Z,2.50
2022-12-02T12:24:33.346Z,2.50
2022-12-02T12:25:44.380Z,2.50
2022-12-02T12:26:54.575Z,2.50
2022-12-02T12:27:56.789Z,2.50
2022-12-02T12:29:04.449Z,2.50
2022-12-02T12:30:09.413Z,2.50
2022-12-02T12:31:11.722Z,2.50
2022-12-02T12:32:14.631Z,2.50
2022-12-02T12:33:17.027Z,2.50
2022-12-02T12:34:19.292Z,2.50
2022-12-02T12:35:21.540Z,2.50
2022-12-02T12:36:23.896Z,2.50
2022-12-02T12:37:26.136Z,2.50
2022-12-02T12:38:31.075Z,2.50
2022-12-02T12:39:33.589Z,2.50
2022-12-02T12:40:35.785Z,2.50
2022-12-02T12:43:01.847Z,2.50
2022-12-02T12:44:04.624Z,2.50
2022-12-02T12:45:07.260Z,2.40
2022-12-02T12:46:09.615Z,2.40
2022-12-02T12:47:11.865Z,2.40
2022-12-02T12:48:14.131Z,2.40
2022-12-02T12:49:16.415Z,2.40
2022-12-02T12:50:18.734Z,2.40
2022-12-02T12:51:21.146Z,2.40
2022-12-02T12:52:23.670Z,2.40
2022-12-02T12:53:26.009Z,2.40
2022-12-02T12:54:28.352Z,2.40
2022-12-02T12:55:30.570Z,2.40
2022-12-02T12:56:32.952Z,2.40
2022-12-02T12:57:35.228Z,2.50
2022-12-02T12:58:37.451Z,2.50
2022-12-02T12:59:39.824Z,2.50
2022-12-02T13:00:42.051Z,2.40
2022-12-02T13:01:44.968Z,2.40
2022-12-02T13:02:47.544Z,2.40
2022-12-02T13:03:49.841Z,2.40
2022-12-02T13:04:52.328Z,2.40
2022-12-02T13:05:55.219Z,2.40
2022-12-02T13:06:57.583Z,2.40
2022-12-02T13:07:59.927Z,2.30
2022-12-02T13:09:02.255Z,2.30
2022-12-02T13:10:05.151Z,2.30
2022-12-02T13:11:07.353Z,2.30
2022-12-02T13:12:13.081Z,2.30
2022-12-02T13:13:15.742Z,2.30
2022-12-02T13:14:18.013Z,2.20
2022-12-02T13:15:20.423Z,2.20
2022-12-02T13:16:22.714Z,2.20
2022-12-02T13:17:25.025Z,2.20
2022-12-02T13:18:27.338Z,2.20
2022-12-02T13:19:29.564Z,2.20
2022-12-02T13:20:32.217Z,2.20
2022-12-02T13:21:34.541Z,2.20
2022-12-02T13:22:36.764Z,2.20
2022-12-02T13:23:39.170Z,2.20
2022-12-02T13:24:43.304Z,2.20
2022-12-02T13:25:45.741Z,2.20
2022-12-02T13:26:48.149Z,2.30
2022-12-02T13:27:50.557Z,2.20
2022-12-02T13:28:53.518Z,2.20
2022-12-02T13:29:55.843Z,2.20
2022-12-02T13:30:58.151Z,2.20
2022-12-02T13:32:00.428Z,2.20
2022-12-02T13:33:02.761Z,2.20
2022-12-02T13:34:05.027Z,2.20
2022-12-02T13:35:07.605Z,2.20
2022-12-02T13:36:10.121Z,2.20
2022-12-02T13:37:12.360Z,2.20
2022-12-02T13:38:14.779Z,2.20
2022-12-02T13:39:17.049Z,2.20
2022-12-02T13:40:19.728Z,2.20
2022-12-02T13:41:22.124Z,2.20
2022-12-02T13:42:24.354Z,2.20
2022-12-02T13:43:26.650Z,2.20
2022-12-02T13:44:28.928Z,2.20
2022-12-02T13:45:31.122Z,2.20
2022-12-02T13:46:33.579Z,2.20
2022-12-02T13:47:35.996Z,2.20
2022-12-02T13:48:38.262Z,2.20
2022-12-02T13:49:40.619Z,2.20
2022-12-02T13:50:43.370Z,2.20
2022-12-02T13:51:45.668Z,2.20
2022-12-02T13:52:47.947Z,2.20
2022-12-02T13:53:53.144Z,2.20
2022-12-02T13:54:59.524Z,2.20
2022-12-02T13:56:01.857Z,2.20
2022-12-02T13:57:04.235Z,2.20
2022-12-02T13:58:06.758Z,2.20
2022-12-02T13:59:08.989Z,2.20
2022-12-02T14:00:12.779Z,2.20
2022-12-02T14:01:18.247Z,2.20
2022-12-02T14:02:20.608Z,2.20
2022-12-02T14:03:22.922Z,2.20
2022-12-02T14:04:25.367Z,2.10
2022-12-02T14:05:27.900Z,2.20
2022-12-02T14:06:30.110Z,2.20
2022-12-02T14:07:32.496Z,2.10
2022-12-02T14:08:34.870Z,2.10
2022-12-02T14:09:37.123Z,2.20
2022-12-02T14:10:39.522Z,2.10
2022-12-02T14:11:41.833Z,2.20
2022-12-02T14:12:44.191Z,2.20
2022-12-02T14:13:46.444Z,2.20
2022-12-02T14:14:48.696Z,2.20
2022-12-02T14:15:50.998Z,2.20
2022-12-02T14:16:53.306Z,2.20
2022-12-02T14:17:55.566Z,2.20
2022-12-02T14:18:57.957Z,2.20
2022-12-02T14:20:00.232Z,2.20
2022-12-02T14:21:02.453Z,2.20
2022-12-02T14:22:04.796Z,2.10
2022-12-02T14:23:08.337Z,2.10
2022-12-02T14:24:10.664Z,2.10
2022-12-02T14:25:13.359Z,2.10
2022-12-02T14:26:15.879Z,2.10